Diane H — WUR7250 — position and weather

sailwx.info

Track history (hours):
 
Tides and Currents Weather Stations Pressure Air Temp Water Temp Dewpoint Dewpoint Depression Visibility Wind Speed Wind Dir Waves Ship Positions

Diane H

Owner: BOYER TOWING INC, KETCHIKAN, AK. More information available from US FCC via Universal Licensing System and Coast Guard Vessel Documentation Center.

Last reported at 2015-Feb-24 14:23 UTC. Time now 2015-Feb-27 16:58 UTC.
Position N 54°23' W 131°29'.

Type: Towing. MMSI: 366673090.

Date/timePositionNaut miles runAvg speedWind from/ knotsBaromVisibWave heightAir tempDewpointWater temp
2015-Feb-24 14:23N 54°23' W 131°29'7 8.0
2015-Feb-24 13:32N 54°21' W 131°18'8 7.8
2015-Feb-24 12:33N 54°17' W 131°06'202 7.0
2015-Feb-23 07:32N 51°33' W 127°52'16 7.8
2015-Feb-23 05:31N 51°17' W 127°53'7 7.7
2015-Feb-23 04:32N 51°10' W 127°51'8 8.2
2015-Feb-23 03:33N 51°04' W 127°42'8 8.2
2015-Feb-23 02:33N 50°58' W 127°32'9 8.5
2015-Feb-23 01:33N 50°53' W 127°21'8 8.1
2015-Feb-23 00:33N 50°48' W 127°12'8 7.8
2015-Feb-22 23:28N 50°43' W 127°00'9 7.4
2015-Feb-22 22:17N 50°38' W 126°49'6 7.6
2015-Feb-22 21:29N 50°34' W 126°41'6 6.9
2015-Feb-22 20:33N 50°31' W 126°33'82 6.9
2015-Feb-22 08:33N 49°43' W 124°49'6 6.4
2015-Feb-22 07:32N 49°38' W 124°43'6 6.4
2015-Feb-22 06:32N 49°33' W 124°35'6 6.5
2015-Feb-22 05:33N 49°29' W 124°28'6 6.4
2015-Feb-22 04:32N 49°25' W 124°20'7 6.4
2015-Feb-22 03:23N 49°22' W 124°10'7 6.5
2015-Feb-22 02:14N 49°18' W 124°00'4 5.9
2015-Feb-22 01:32N 49°15' W 123°56'6 5.9
2015-Feb-22 00:32N 49°10' W 123°52'1 0.1
2015-Feb-21 00:29N 49°09' W 123°51'6 6.3
2015-Feb-20 23:31N 49°14' W 123°54'8 7.3
2015-Feb-20 22:28N 49°19' W 124°03'6 6.8
2015-Feb-20 21:33N 49°22' W 124°12'7 7.0
2015-Feb-20 20:32N 49°25' W 124°22'7 6.8
2015-Feb-20 19:31N 49°30' W 124°30'8 6.8
2015-Feb-20 18:23N 49°35' W 124°38'6 6.8
2015-Feb-20 17:32N 49°39' W 124°45'16 6.6
2015-Feb-20 15:11N 49°52' W 124°59'69 8.0
2015-Feb-20 06:33N 50°30' W 126°29'15 6.8
2015-Feb-20 04:18N 50°38' W 126°50'7 7.9
2015-Feb-20 03:25N 50°43' W 126°58'6 7.5
2015-Feb-20 02:33N 50°46' W 127°07'7 7.5
2015-Feb-20 01:33N 50°50' W 127°16'7 6.9
2015-Feb-20 00:33N 50°55' W 127°25'6 6.3
2015-Feb-19 23:33N 50°59' W 127°32'7 6.8
2015-Feb-19 22:33N 51°03' W 127°40'7 7.0
2015-Feb-19 21:33N 51°08' W 127°49'23 7.6
2015-Feb-19 18:32N 51°31' W 127°52'176 6.3
2015-Feb-18 14:26N 54°03' W 130°16'5 6.0
2015-Feb-18 13:33N 54°06' W 130°23'6 6.2
2015-Feb-18 12:33N 54°10' W 130°33'6 6.0
2015-Feb-18 11:33N 54°13' W 130°41'7 6.4
2015-Feb-18 10:32N 54°17' W 130°50'  
2015-Feb-15 22:29N 54°14' W 131°24'8 8.8
2015-Feb-15 21:33N 54°08' W 131°15'9 8.5
2015-Feb-15 20:33N 54°03' W 131°03'190 7.0
2015-Feb-14 17:16N 51°32' W 127°52'20 7.2
2015-Feb-14 14:33N 51°12' W 127°51'  
Track history (hours):
 
Tides and Currents Weather Stations Pressure Air Temp Water Temp Dewpoint Dewpoint Depression Visibility Wind Speed Wind Dir Waves Ship Positions

Diane H

Owner: BOYER TOWING INC, KETCHIKAN, AK. More information available from US FCC via Universal Licensing System and Coast Guard Vessel Documentation Center.

Last reported at 2015-Feb-24 14:23 UTC. Time now 2015-Feb-27 16:58 UTC.
Position N 54°23' W 131°29'.

Type: Towing. MMSI: 366673090.

Date/timePositionNaut miles runAvg speedWind from/ knotsBaromVisibWave heightAir tempDewpointWater temp
2015-Feb-24 14:23N 54°23' W 131°29'7 8.0
2015-Feb-24 13:32N 54°21' W 131°18'8 7.8
2015-Feb-24 12:33N 54°17' W 131°06'202 7.0
2015-Feb-23 07:32N 51°33' W 127°52'16 7.8
2015-Feb-23 05:31N 51°17' W 127°53'7 7.7
2015-Feb-23 04:32N 51°10' W 127°51'8 8.2
2015-Feb-23 03:33N 51°04' W 127°42'8 8.2
2015-Feb-23 02:33N 50°58' W 127°32'9 8.5
2015-Feb-23 01:33N 50°53' W 127°21'8 8.1
2015-Feb-23 00:33N 50°48' W 127°12'8 7.8
2015-Feb-22 23:28N 50°43' W 127°00'9 7.4
2015-Feb-22 22:17N 50°38' W 126°49'6 7.6
2015-Feb-22 21:29N 50°34' W 126°41'6 6.9
2015-Feb-22 20:33N 50°31' W 126°33'82 6.9
2015-Feb-22 08:33N 49°43' W 124°49'6 6.4
2015-Feb-22 07:32N 49°38' W 124°43'6 6.4
2015-Feb-22 06:32N 49°33' W 124°35'6 6.5
2015-Feb-22 05:33N 49°29' W 124°28'6 6.4
2015-Feb-22 04:32N 49°25' W 124°20'7 6.4
2015-Feb-22 03:23N 49°22' W 124°10'7 6.5
2015-Feb-22 02:14N 49°18' W 124°00'4 5.9
2015-Feb-22 01:32N 49°15' W 123°56'6 5.9
2015-Feb-22 00:32N 49°10' W 123°52'1 0.1
2015-Feb-21 00:29N 49°09' W 123°51'6 6.3
2015-Feb-20 23:31N 49°14' W 123°54'8 7.3
2015-Feb-20 22:28N 49°19' W 124°03'6 6.8
2015-Feb-20 21:33N 49°22' W 124°12'7 7.0
2015-Feb-20 20:32N 49°25' W 124°22'7 6.8
2015-Feb-20 19:31N 49°30' W 124°30'8 6.8
2015-Feb-20 18:23N 49°35' W 124°38'6 6.8
2015-Feb-20 17:32N 49°39' W 124°45'16 6.6
2015-Feb-20 15:11N 49°52' W 124°59'69 8.0
2015-Feb-20 06:33N 50°30' W 126°29'15 6.8
2015-Feb-20 04:18N 50°38' W 126°50'7 7.9
2015-Feb-20 03:25N 50°43' W 126°58'6 7.5
2015-Feb-20 02:33N 50°46' W 127°07'7 7.5
2015-Feb-20 01:33N 50°50' W 127°16'7 6.9
2015-Feb-20 00:33N 50°55' W 127°25'6 6.3
2015-Feb-19 23:33N 50°59' W 127°32'7 6.8
2015-Feb-19 22:33N 51°03' W 127°40'7 7.0
2015-Feb-19 21:33N 51°08' W 127°49'23 7.6
2015-Feb-19 18:32N 51°31' W 127°52'176 6.3
2015-Feb-18 14:26N 54°03' W 130°16'5 6.0
2015-Feb-18 13:33N 54°06' W 130°23'6 6.2
2015-Feb-18 12:33N 54°10' W 130°33'6 6.0
2015-Feb-18 11:33N 54°13' W 130°41'7 6.4
2015-Feb-18 10:32N 54°17' W 130°50'  
2015-Feb-15 22:29N 54°14' W 131°24'8 8.8
2015-Feb-15 21:33N 54°08' W 131°15'9 8.5
2015-Feb-15 20:33N 54°03' W 131°03'190 7.0
2015-Feb-14 17:16N 51°32' W 127°52'20 7.2
2015-Feb-14 14:33N 51°12' W 127°51'  

Dump ship's entire track history